sensor_id;sensor_type;location;lat;lon;timestamp;temperature;humidity
61016;DHT22;46902;52.920;6.536;2023-03-21T00:01:35;9.30;99.90
61016;DHT22;46902;52.920;6.536;2023-03-21T00:04:01;9.30;99.90
61016;DHT22;46902;52.920;6.536;2023-03-21T00:06:27;9.30;99.90
61016;DHT22;46902;52.920;6.536;2023-03-21T00:08:53;9.30;99.90
61016;DHT22;46902;52.920;6.536;2023-03-21T00:11:18;9.30;99.90
61016;DHT22;46902;52.920;6.536;2023-03-21T00:13:44;9.30;99.90
61016;DHT22;46902;52.920;6.536;2023-03-21T00:16:15;9.30;99.90
61016;DHT22;46902;52.920;6.536;2023-03-21T00:18:46;9.40;99.90
61016;DHT22;46902;52.920;6.536;2023-03-21T00:21:15;9.30;99.90
61016;DHT22;46902;52.920;6.536;2023-03-21T00:23:41;9.30;99.90
61016;DHT22;46902;52.920;6.536;2023-03-21T00:26:08;9.30;99.90
61016;DHT22;46902;52.920;6.536;2023-03-21T00:28:35;9.30;99.90
61016;DHT22;46902;52.920;6.536;2023-03-21T00:31:02;9.40;99.90
61016;DHT22;46902;52.920;6.536;2023-03-21T00:33:30;9.40;99.90
61016;DHT22;46902;52.920;6.536;2023-03-21T00:35:56;9.30;99.90
61016;DHT22;46902;52.920;6.536;2023-03-21T00:38:23;9.30;99.90
61016;DHT22;46902;52.920;6.536;2023-03-21T00:40:49;9.40;99.90
61016;DHT22;46902;52.920;6.536;2023-03-21T00:43:15;9.40;99.90
61016;DHT22;46902;52.920;6.536;2023-03-21T00:45:48;9.40;99.90
61016;DHT22;46902;52.920;6.536;2023-03-21T00:48:15;9.30;99.90
61016;DHT22;46902;52.920;6.536;2023-03-21T00:50:41;9.40;99.90
61016;DHT22;46902;52.920;6.536;2023-03-21T00:53:10;9.40;99.90
61016;DHT22;46902;52.920;6.536;2023-03-21T00:55:35;9.40;99.90
61016;DHT22;46902;52.920;6.536;2023-03-21T00:58:03;9.40;99.90
61016;DHT22;46902;52.920;6.536;2023-03-21T01:00:29;9.40;99.90
61016;DHT22;46902;52.920;6.536;2023-03-21T01:02:55;9.40;99.90
61016;DHT22;46902;52.920;6.536;2023-03-21T01:05:31;9.40;99.90
61016;DHT22;46902;52.920;6.536;2023-03-21T01:08:17;9.40;99.90
61016;DHT22;46902;52.920;6.536;2023-03-21T01:10:45;9.40;99.90
61016;DHT22;46902;52.920;6.536;2023-03-21T01:13:13;9.40;99.90
61016;DHT22;46902;52.920;6.536;2023-03-21T01:15:52;9.40;99.90
61016;DHT22;46902;52.920;6.536;2023-03-21T01:18:21;9.40;99.90
61016;DHT22;46902;52.920;6.536;2023-03-21T01:20:47;9.40;99.90
61016;DHT22;46902;52.920;6.536;2023-03-21T01:23:14;9.40;99.90
61016;DHT22;46902;52.920;6.536;2023-03-21T01:25:40;9.40;99.90
61016;DHT22;46902;52.920;6.536;2023-03-21T01:28:06;9.40;99.90
61016;DHT22;46902;52.920;6.536;2023-03-21T01:30:32;9.40;99.90
61016;DHT22;46902;52.920;6.536;2023-03-21T01:32:58;9.40;99.90
61016;DHT22;46902;52.920;6.536;2023-03-21T01:35:24;9.40;99.90
61016;DHT22;46902;52.920;6.536;2023-03-21T01:37:50;9.50;99.90
61016;DHT22;46902;52.920;6.536;2023-03-21T01:40:22;9.40;99.90
61016;DHT22;46902;52.920;6.536;2023-03-21T01:42:48;9.50;99.90
61016;DHT22;46902;52.920;6.536;2023-03-21T01:48:18;9.50;99.90
61016;DHT22;46902;52.920;6.536;2023-03-21T01:50:45;9.40;99.90
61016;DHT22;46902;52.920;6.536;2023-03-21T01:53:11;9.40;99.90
61016;DHT22;46902;52.920;6.536;2023-03-21T01:55:38;9.50;99.90
61016;DHT22;46902;52.920;6.536;2023-03-21T01:58:05;9.40;99.90
61016;DHT22;46902;52.920;6.536;2023-03-21T02:00:32;9.40;99.90
61016;DHT22;46902;52.920;6.536;2023-03-21T02:03:00;9.40;99.90
61016;DHT22;46902;52.920;6.536;2023-03-21T02:08:20;9.40;99.90
61016;DHT22;46902;52.920;6.536;2023-03-21T02:10:47;9.50;99.90
61016;DHT22;46902;52.920;6.536;2023-03-21T02:13:13;9.50;99.90
61016;DHT22;46902;52.920;6.536;2023-03-21T02:15:45;9.50;99.90
61016;DHT22;46902;52.920;6.536;2023-03-21T02:18:24;9.50;99.90
61016;DHT22;46902;52.920;6.536;2023-03-21T02:23:56;9.40;99.90
61016;DHT22;46902;52.920;6.536;2023-03-21T02:35:06;9.40;99.90
61016;DHT22;46902;52.920;6.536;2023-03-21T02:40:14;9.40;99.90
61016;DHT22;46902;52.920;6.536;2023-03-21T02:42:52;9.30;99.90
61016;DHT22;46902;52.920;6.536;2023-03-21T02:45:25;9.40;99.90
61016;DHT22;46902;52.920;6.536;2023-03-21T02:48:02;9.40;99.90
61016;DHT22;46902;52.920;6.536;2023-03-21T02:50:48;9.40;99.90
61016;DHT22;46902;52.920;6.536;2023-03-21T02:53:18;9.40;99.90
61016;DHT22;46902;52.920;6.536;2023-03-21T02:55:46;9.40;99.90
61016;DHT22;46902;52.920;6.536;2023-03-21T02:58:16;9.40;99.90
61016;DHT22;46902;52.920;6.536;2023-03-21T03:00:44;9.40;99.90
61016;DHT22;46902;52.920;6.536;2023-03-21T03:03:11;9.40;99.90
61016;DHT22;46902;52.920;6.536;2023-03-21T03:05:43;9.40;99.90
61016;DHT22;46902;52.920;6.536;2023-03-21T03:13:55;9.40;99.90
61016;DHT22;46902;52.920;6.536;2023-03-21T03:19:19;9.40;99.90
61016;DHT22;46902;52.920;6.536;2023-03-21T03:21:54;9.30;99.90
61016;DHT22;46902;52.920;6.536;2023-03-21T03:24:35;9.30;99.90
61016;DHT22;46902;52.920;6.536;2023-03-21T03:27:15;9.30;99.90
61016;DHT22;46902;52.920;6.536;2023-03-21T03:29:43;9.30;99.90
61016;DHT22;46902;52.920;6.536;2023-03-21T03:34:43;9.40;99.90
61016;DHT22;46902;52.920;6.536;2023-03-21T03:37:17;9.30;99.90
61016;DHT22;46902;52.920;6.536;2023-03-21T03:42:23;9.30;99.90
61016;DHT22;46902;52.920;6.536;2023-03-21T03:44:52;9.40;99.90
61016;DHT22;46902;52.920;6.536;2023-03-21T03:47:39;9.30;99.90
61016;DHT22;46902;52.920;6.536;2023-03-21T03:50:13;9.40;99.90
61016;DHT22;46902;52.920;6.536;2023-03-21T03:52:51;9.30;99.90
61016;DHT22;46902;52.920;6.536;2023-03-21T03:55:18;9.30;99.90
61016;DHT22;46902;52.920;6.536;2023-03-21T03:57:46;9.30;99.90
61016;DHT22;46902;52.920;6.536;2023-03-21T04:00:13;9.30;99.90
61016;DHT22;46902;52.920;6.536;2023-03-21T04:02:40;9.30;99.90
61016;DHT22;46902;52.920;6.536;2023-03-21T04:05:06;9.40;99.90
61016;DHT22;46902;52.920;6.536;2023-03-21T04:07:32;9.40;99.90
61016;DHT22;46902;52.920;6.536;2023-03-21T04:09:58;9.30;99.90
61016;DHT22;46902;52.920;6.536;2023-03-21T04:12:23;9.30;99.90
61016;DHT22;46902;52.920;6.536;2023-03-21T04:14:49;9.40;99.90
61016;DHT22;46902;52.920;6.536;2023-03-21T04:17:16;9.30;99.90
61016;DHT22;46902;52.920;6.536;2023-03-21T04:19:43;9.30;99.90
61016;DHT22;46902;52.920;6.536;2023-03-21T04:22:10;9.30;99.90
61016;DHT22;46902;52.920;6.536;2023-03-21T04:24:37;9.30;99.90
61016;DHT22;46902;52.920;6.536;2023-03-21T04:27:04;9.30;99.90
61016;DHT22;46902;52.920;6.536;2023-03-21T04:29:30;9.30;99.90
61016;DHT22;46902;52.920;6.536;2023-03-21T04:31:56;9.30;99.90
61016;DHT22;46902;52.920;6.536;2023-03-21T04:34:22;9.30;99.90
61016;DHT22;46902;52.920;6.536;2023-03-21T04:36:49;9.30;99.90
61016;DHT22;46902;52.920;6.536;2023-03-21T04:39:15;9.20;99.90
61016;DHT22;46902;52.920;6.536;2023-03-21T04:41:43;9.30;99.90
61016;DHT22;46902;52.920;6.536;2023-03-21T04:44:10;9.30;99.90
61016;DHT22;46902;52.920;6.536;2023-03-21T04:46:37;9.20;99.90
61016;DHT22;46902;52.920;6.536;2023-03-21T04:49:03;9.20;99.90
61016;DHT22;46902;52.920;6.536;2023-03-21T04:51:29;9.30;99.90
61016;DHT22;46902;52.920;6.536;2023-03-21T04:53:55;9.30;99.90
61016;DHT22;46902;52.920;6.536;2023-03-21T04:56:27;9.30;99.90
61016;DHT22;46902;52.920;6.536;2023-03-21T04:59:00;9.20;99.90
61016;DHT22;46902;52.920;6.536;2023-03-21T05:01:27;9.30;99.90
61016;DHT22;46902;52.920;6.536;2023-03-21T05:03:59;9.30;99.90
61016;DHT22;46902;52.920;6.536;2023-03-21T05:06:25;9.20;99.90
61016;DHT22;46902;52.920;6.536;2023-03-21T05:08:55;9.20;99.90
61016;DHT22;46902;52.920;6.536;2023-03-21T05:11:27;9.30;99.90
61016;DHT22;46902;52.920;6.536;2023-03-21T05:13:55;9.30;99.90
61016;DHT22;46902;52.920;6.536;2023-03-21T05:16:20;9.30;99.90
61016;DHT22;46902;52.920;6.536;2023-03-21T05:18:49;9.30;99.90
61016;DHT22;46902;52.920;6.536;2023-03-21T05:21:15;9.30;99.90
61016;DHT22;46902;52.920;6.536;2023-03-21T05:23:42;9.20;99.90
61016;DHT22;46902;52.920;6.536;2023-03-21T05:26:09;9.20;99.90
61016;DHT22;46902;52.920;6.536;2023-03-21T05:28:35;9.30;99.90
61016;DHT22;46902;52.920;6.536;2023-03-21T05:31:05;9.30;99.90
61016;DHT22;46902;52.920;6.536;2023-03-21T05:33:31;9.30;99.90
61016;DHT22;46902;52.920;6.536;2023-03-21T05:35:57;9.20;99.90
61016;DHT22;46902;52.920;6.536;2023-03-21T05:38:23;9.30;99.90
61016;DHT22;46902;52.920;6.536;2023-03-21T05:40:49;9.20;99.90
61016;DHT22;46902;52.920;6.536;2023-03-21T05:43:16;9.30;99.90
61016;DHT22;46902;52.920;6.536;2023-03-21T05:45:41;9.30;99.90
61016;DHT22;46902;52.920;6.536;2023-03-21T05:48:07;9.30;99.90
61016;DHT22;46902;52.920;6.536;2023-03-21T05:50:33;9.30;99.90
61016;DHT22;46902;52.920;6.536;2023-03-21T05:52:58;9.30;99.90
61016;DHT22;46902;52.920;6.536;2023-03-21T05:55:24;9.30;99.90
61016;DHT22;46902;52.920;6.536;2023-03-21T05:57:50;9.30;99.90
61016;DHT22;46902;52.920;6.536;2023-03-21T06:00:16;9.30;99.90
61016;DHT22;46902;52.920;6.536;2023-03-21T06:02:43;9.30;99.90
61016;DHT22;46902;52.920;6.536;2023-03-21T06:05:08;9.30;99.90
61016;DHT22;46902;52.920;6.536;2023-03-21T06:07:35;9.30;99.90
61016;DHT22;46902;52.920;6.536;2023-03-21T06:10:02;9.30;99.90
61016;DHT22;46902;52.920;6.536;2023-03-21T06:12:27;9.30;99.90
61016;DHT22;46902;52.920;6.536;2023-03-21T06:14:53;9.30;99.90
61016;DHT22;46902;52.920;6.536;2023-03-21T06:17:19;9.30;99.90
61016;DHT22;46902;52.920;6.536;2023-03-21T06:19:44;9.20;99.90
61016;DHT22;46902;52.920;6.536;2023-03-21T06:22:10;9.30;99.90
61016;DHT22;46902;52.920;6.536;2023-03-21T06:24:36;9.20;99.90
61016;DHT22;46902;52.920;6.536;2023-03-21T06:27:01;9.20;99.90
61016;DHT22;46902;52.920;6.536;2023-03-21T06:29:27;9.30;99.90
61016;DHT22;46902;52.920;6.536;2023-03-21T06:31:52;9.30;99.90
61016;DHT22;46902;52.920;6.536;2023-03-21T06:34:18;9.20;99.90
61016;DHT22;46902;52.920;6.536;2023-03-21T06:36:44;9.20;99.90
61016;DHT22;46902;52.920;6.536;2023-03-21T06:39:11;9.30;99.90
61016;DHT22;46902;52.920;6.536;2023-03-21T06:41:37;9.30;99.90
61016;DHT22;46902;52.920;6.536;2023-03-21T06:44:02;9.30;99.90
61016;DHT22;46902;52.920;6.536;2023-03-21T06:46:28;9.30;99.90
61016;DHT22;46902;52.920;6.536;2023-03-21T06:48:54;9.30;99.90
61016;DHT22;46902;52.920;6.536;2023-03-21T06:51:19;9.30;99.90
61016;DHT22;46902;52.920;6.536;2023-03-21T06:53:45;9.30;99.90
61016;DHT22;46902;52.920;6.536;2023-03-21T06:56:12;9.30;99.90
61016;DHT22;46902;52.920;6.536;2023-03-21T06:58:38;9.40;99.90
61016;DHT22;46902;52.920;6.536;2023-03-21T07:01:04;9.30;99.90
61016;DHT22;46902;52.920;6.536;2023-03-21T07:03:31;9.30;99.90
61016;DHT22;46902;52.920;6.536;2023-03-21T07:05:57;9.30;99.90
61016;DHT22;46902;52.920;6.536;2023-03-21T07:08:23;9.30;99.90
61016;DHT22;46902;52.920;6.536;2023-03-21T07:10:49;9.40;99.90
61016;DHT22;46902;52.920;6.536;2023-03-21T07:13:15;9.40;99.90
61016;DHT22;46902;52.920;6.536;2023-03-21T07:15:41;9.40;99.90
61016;DHT22;46902;52.920;6.536;2023-03-21T07:18:08;9.40;99.90
61016;DHT22;46902;52.920;6.536;2023-03-21T07:20:34;9.40;99.90
61016;DHT22;46902;52.920;6.536;2023-03-21T07:23:02;9.40;99.90
61016;DHT22;46902;52.920;6.536;2023-03-21T07:25:28;9.40;99.90
61016;DHT22;46902;52.920;6.536;2023-03-21T07:27:54;9.40;99.90
61016;DHT22;46902;52.920;6.536;2023-03-21T07:30:20;9.40;99.90
61016;DHT22;46902;52.920;6.536;2023-03-21T07:32:46;9.40;99.90
61016;DHT22;46902;52.920;6.536;2023-03-21T07:35:13;9.40;99.90
61016;DHT22;46902;52.920;6.536;2023-03-21T07:37:40;9.40;99.90
61016;DHT22;46902;52.920;6.536;2023-03-21T07:40:06;9.40;99.90
61016;DHT22;46902;52.920;6.536;2023-03-21T07:42:40;9.40;99.90
61016;DHT22;46902;52.920;6.536;2023-03-21T07:45:07;9.40;99.90
61016;DHT22;46902;52.920;6.536;2023-03-21T07:47:33;9.40;99.90
61016;DHT22;46902;52.920;6.536;2023-03-21T07:50:00;9.40;99.90
61016;DHT22;46902;52.920;6.536;2023-03-21T07:52:25;9.40;99.90
61016;DHT22;46902;52.920;6.536;2023-03-21T07:54:51;9.40;99.90
61016;DHT22;46902;52.920;6.536;2023-03-21T07:57:17;9.40;99.90
61016;DHT22;46902;52.920;6.536;2023-03-21T07:59:42;9.40;99.90
61016;DHT22;46902;52.920;6.536;2023-03-21T08:02:17;9.40;99.90
61016;DHT22;46902;52.920;6.536;2023-03-21T08:04:43;9.50;99.90
61016;DHT22;46902;52.920;6.536;2023-03-21T08:07:09;9.40;99.90
61016;DHT22;46902;52.920;6.536;2023-03-21T08:09:35;9.40;99.90
61016;DHT22;46902;52.920;6.536;2023-03-21T08:12:02;9.50;99.90
61016;DHT22;46902;52.920;6.536;2023-03-21T08:14:27;9.50;99.90
61016;DHT22;46902;52.920;6.536;2023-03-21T08:16:53;9.40;99.90
61016;DHT22;46902;52.920;6.536;2023-03-21T08:19:19;9.50;99.90
61016;DHT22;46902;52.920;6.536;2023-03-21T08:21:47;9.50;99.90
61016;DHT22;46902;52.920;6.536;2023-03-21T08:24:14;9.50;99.90
61016;DHT22;46902;52.920;6.536;2023-03-21T08:26:40;9.50;99.90
61016;DHT22;46902;52.920;6.536;2023-03-21T08:29:07;9.50;99.90
61016;DHT22;46902;52.920;6.536;2023-03-21T08:31:32;9.50;99.90
61016;DHT22;46902;52.920;6.536;2023-03-21T08:33:58;9.60;99.90
61016;DHT22;46902;52.920;6.536;2023-03-21T08:36:24;9.60;99.90
61016;DHT22;46902;52.920;6.536;2023-03-21T08:38:49;9.70;99.90
61016;DHT22;46902;52.920;6.536;2023-03-21T08:41:19;9.60;99.90
61016;DHT22;46902;52.920;6.536;2023-03-21T08:43:47;9.70;99.90
61016;DHT22;46902;52.920;6.536;2023-03-21T08:46:13;9.60;99.90
61016;DHT22;46902;52.920;6.536;2023-03-21T08:48:38;9.70;99.90
61016;DHT22;46902;52.920;6.536;2023-03-21T08:51:04;9.70;99.90
61016;DHT22;46902;52.920;6.536;2023-03-21T08:53:31;9.60;99.90
61016;DHT22;46902;52.920;6.536;2023-03-21T08:55:57;9.60;99.90
61016;DHT22;46902;52.920;6.536;2023-03-21T08:58:23;9.60;99.90
61016;DHT22;46902;52.920;6.536;2023-03-21T09:00:48;9.70;99.90
61016;DHT22;46902;52.920;6.536;2023-03-21T09:03:15;9.70;99.90
61016;DHT22;46902;52.920;6.536;2023-03-21T09:05:42;9.70;99.90
61016;DHT22;46902;52.920;6.536;2023-03-21T09:08:10;9.70;99.90
61016;DHT22;46902;52.920;6.536;2023-03-21T09:10:37;9.70;99.90
61016;DHT22;46902;52.920;6.536;2023-03-21T09:13:03;9.70;99.90
61016;DHT22;46902;52.920;6.536;2023-03-21T09:15:29;9.60;99.90
61016;DHT22;46902;52.920;6.536;2023-03-21T09:17:55;9.60;99.90
61016;DHT22;46902;52.920;6.536;2023-03-21T09:20:24;9.50;99.90
61016;DHT22;46902;52.920;6.536;2023-03-21T09:22:55;9.60;99.90
61016;DHT22;46902;52.920;6.536;2023-03-21T09:25:21;9.60;99.90
61016;DHT22;46902;52.920;6.536;2023-03-21T09:27:49;9.60;99.90
61016;DHT22;46902;52.920;6.536;2023-03-21T09:30:18;9.60;99.90
61016;DHT22;46902;52.920;6.536;2023-03-21T09:32:44;9.50;99.90
61016;DHT22;46902;52.920;6.536;2023-03-21T09:35:13;9.50;99.90
61016;DHT22;46902;52.920;6.536;2023-03-21T09:37:40;9.50;99.90
61016;DHT22;46902;52.920;6.536;2023-03-21T09:43:15;9.60;99.90
61016;DHT22;46902;52.920;6.536;2023-03-21T09:45:55;9.60;99.90
61016;DHT22;46902;52.920;6.536;2023-03-21T09:48:44;9.60;99.90
61016;DHT22;46902;52.920;6.536;2023-03-21T09:51:14;9.60;99.90
61016;DHT22;46902;52.920;6.536;2023-03-21T09:53:45;9.60;99.90
61016;DHT22;46902;52.920;6.536;2023-03-21T09:56:12;9.50;99.90
61016;DHT22;46902;52.920;6.536;2023-03-21T09:58:48;9.60;99.90
61016;DHT22;46902;52.920;6.536;2023-03-21T10:01:30;9.50;99.90
61016;DHT22;46902;52.920;6.536;2023-03-21T10:04:07;9.60;99.90
61016;DHT22;46902;52.920;6.536;2023-03-21T10:06:37;9.50;99.90
61016;DHT22;46902;52.920;6.536;2023-03-21T10:09:16;9.50;99.90
61016;DHT22;46902;52.920;6.536;2023-03-21T10:12:04;9.50;99.90
61016;DHT22;46902;52.920;6.536;2023-03-21T10:14:40;9.60;99.90
61016;DHT22;46902;52.920;6.536;2023-03-21T10:17:37;9.60;99.90
61016;DHT22;46902;52.920;6.536;2023-03-21T10:20:18;9.60;99.90
61016;DHT22;46902;52.920;6.536;2023-03-21T10:22:48;9.60;99.90
61016;DHT22;46902;52.920;6.536;2023-03-21T10:25:20;9.60;99.90
61016;DHT22;46902;52.920;6.536;2023-03-21T10:27:47;9.70;99.90
61016;DHT22;46902;52.920;6.536;2023-03-21T10:30:25;9.70;99.90
61016;DHT22;46902;52.920;6.536;2023-03-21T10:32:54;9.80;99.90
61016;DHT22;46902;52.920;6.536;2023-03-21T10:35:21;9.90;99.90
61016;DHT22;46902;52.920;6.536;2023-03-21T10:37:46;9.90;99.90
61016;DHT22;46902;52.920;6.536;2023-03-21T10:40:16;9.90;99.90
61016;DHT22;46902;52.920;6.536;2023-03-21T10:42:42;9.90;99.90
61016;DHT22;46902;52.920;6.536;2023-03-21T10:45:17;9.90;99.90
61016;DHT22;46902;52.920;6.536;2023-03-21T10:47:47;10.00;99.90
61016;DHT22;46902;52.920;6.536;2023-03-21T10:50:15;10.00;99.90
61016;DHT22;46902;52.920;6.536;2023-03-21T10:52:48;10.10;99.90
61016;DHT22;46902;52.920;6.536;2023-03-21T10:55:22;10.10;99.90
61016;DHT22;46902;52.920;6.536;2023-03-21T10:57:54;10.20;99.90
61016;DHT22;46902;52.920;6.536;2023-03-21T11:00:23;10.20;99.90
61016;DHT22;46902;52.920;6.536;2023-03-21T11:02:50;10.30;99.90
61016;DHT22;46902;52.920;6.536;2023-03-21T11:05:21;10.30;99.90
61016;DHT22;46902;52.920;6.536;2023-03-21T11:08:18;10.40;99.90
61016;DHT22;46902;52.920;6.536;2023-03-21T11:10:52;10.50;99.90
61016;DHT22;46902;52.920;6.536;2023-03-21T11:13:24;10.60;99.90
61016;DHT22;46902;52.920;6.536;2023-03-21T11:16:05;10.70;99.90
61016;DHT22;46902;52.920;6.536;2023-03-21T11:18:31;10.80;99.90
61016;DHT22;46902;52.920;6.536;2023-03-21T11:21:05;10.90;99.90
61016;DHT22;46902;52.920;6.536;2023-03-21T11:23:33;11.00;99.90
61016;DHT22;46902;52.920;6.536;2023-03-21T11:26:01;11.00;99.90
61016;DHT22;46902;52.920;6.536;2023-03-21T11:28:37;11.10;99.90
61016;DHT22;46902;52.920;6.536;2023-03-21T11:31:04;11.20;99.90
61016;DHT22;46902;52.920;6.536;2023-03-21T11:33:51;11.10;99.90
61016;DHT22;46902;52.920;6.536;2023-03-21T11:38:43;11.10;99.90
61016;DHT22;46902;52.920;6.536;2023-03-21T11:41:22;11.10;99.90
61016;DHT22;46902;52.920;6.536;2023-03-21T11:43:52;11.20;99.90
61016;DHT22;46902;52.920;6.536;2023-03-21T11:46:22;11.20;99.90
61016;DHT22;46902;52.920;6.536;2023-03-21T11:48:48;11.20;99.90
61016;DHT22;46902;52.920;6.536;2023-03-21T11:51:25;11.20;99.90
61016;DHT22;46902;52.920;6.536;2023-03-21T11:54:18;11.30;99.90
61016;DHT22;46902;52.920;6.536;2023-03-21T11:56:49;11.20;99.90
61016;DHT22;46902;52.920;6.536;2023-03-21T11:59:32;11.20;99.90
61016;DHT22;46902;52.920;6.536;2023-03-21T12:05:29;11.20;99.90
61016;DHT22;46902;52.920;6.536;2023-03-21T12:10:51;11.20;99.90
61016;DHT22;46902;52.920;6.536;2023-03-21T12:24:45;11.60;99.90
61016;DHT22;46902;52.920;6.536;2023-03-21T12:27:35;11.50;99.90
61016;DHT22;46902;52.920;6.536;2023-03-21T12:30:10;11.40;99.90
61016;DHT22;46902;52.920;6.536;2023-03-21T12:35:34;11.30;99.90
61016;DHT22;46902;52.920;6.536;2023-03-21T12:43:34;11.20;99.90
61016;DHT22;46902;52.920;6.536;2023-03-21T12:46:12;11.20;99.90
61016;DHT22;46902;52.920;6.536;2023-03-21T12:48:57;11.20;99.90
61016;DHT22;46902;52.920;6.536;2023-03-21T12:51:31;11.20;99.90
61016;DHT22;46902;52.920;6.536;2023-03-21T12:59:22;11.20;99.90
61016;DHT22;46902;52.920;6.536;2023-03-21T13:01:54;11.20;99.90
61016;DHT22;46902;52.920;6.536;2023-03-21T13:07:00;11.20;99.90
61016;DHT22;46902;52.920;6.536;2023-03-21T13:09:38;11.20;99.90
61016;DHT22;46902;52.920;6.536;2023-03-21T13:17:41;11.40;99.90
61016;DHT22;46902;52.920;6.536;2023-03-21T13:23:06;11.50;99.90
61016;DHT22;46902;52.920;6.536;2023-03-21T13:25:40;11.50;99.90
61016;DHT22;46902;52.920;6.536;2023-03-21T13:28:19;11.50;99.90
61016;DHT22;46902;52.920;6.536;2023-03-21T13:30:46;11.50;99.90
61016;DHT22;46902;52.920;6.536;2023-03-21T13:33:15;11.50;99.90
61016;DHT22;46902;52.920;6.536;2023-03-21T13:35:43;11.50;99.90
61016;DHT22;46902;52.920;6.536;2023-03-21T13:38:21;11.60;99.90
61016;DHT22;46902;52.920;6.536;2023-03-21T13:41:00;11.50;99.90
61016;DHT22;46902;52.920;6.536;2023-03-21T13:51:21;11.80;99.90
61016;DHT22;46902;52.920;6.536;2023-03-21T13:56:56;11.90;99.90
61016;DHT22;46902;52.920;6.536;2023-03-21T13:59:43;11.90;99.90
61016;DHT22;46902;52.920;6.536;2023-03-21T14:04:39;11.90;99.90
61016;DHT22;46902;52.920;6.536;2023-03-21T14:09:48;12.00;99.90
61016;DHT22;46902;52.920;6.536;2023-03-21T14:12:21;12.00;99.90
61016;DHT22;46902;52.920;6.536;2023-03-21T14:15:17;12.20;99.90
61016;DHT22;46902;52.920;6.536;2023-03-21T14:17:53;12.30;99.90
61016;DHT22;46902;52.920;6.536;2023-03-21T14:20:37;12.50;99.90
61016;DHT22;46902;52.920;6.536;2023-03-21T14:23:05;12.60;99.90
61016;DHT22;46902;52.920;6.536;2023-03-21T14:25:36;12.70;99.90
61016;DHT22;46902;52.920;6.536;2023-03-21T14:28:05;12.70;99.90
61016;DHT22;46902;52.920;6.536;2023-03-21T14:30:37;12.70;99.90
61016;DHT22;46902;52.920;6.536;2023-03-21T14:35:46;12.60;99.90
61016;DHT22;46902;52.920;6.536;2023-03-21T14:38:25;12.50;99.90
61016;DHT22;46902;52.920;6.536;2023-03-21T14:40:53;12.50;99.90
61016;DHT22;46902;52.920;6.536;2023-03-21T14:43:21;12.40;99.90
61016;DHT22;46902;52.920;6.536;2023-03-21T14:45:48;12.30;99.90
61016;DHT22;46902;52.920;6.536;2023-03-21T14:48:15;12.30;99.90
61016;DHT22;46902;52.920;6.536;2023-03-21T14:50:46;12.30;99.90
61016;DHT22;46902;52.920;6.536;2023-03-21T14:53:28;12.40;99.90
61016;DHT22;46902;52.920;6.536;2023-03-21T14:56:01;12.40;99.90
61016;DHT22;46902;52.920;6.536;2023-03-21T14:58:29;12.50;99.90
61016;DHT22;46902;52.920;6.536;2023-03-21T15:00:59;12.60;99.90
61016;DHT22;46902;52.920;6.536;2023-03-21T15:03:26;12.60;99.90
61016;DHT22;46902;52.920;6.536;2023-03-21T15:05:54;12.50;99.90
61016;DHT22;46902;52.920;6.536;2023-03-21T15:08:22;12.50;99.90
61016;DHT22;46902;52.920;6.536;2023-03-21T15:11:03;12.50;99.90
61016;DHT22;46902;52.920;6.536;2023-03-21T15:13:35;12.40;99.90
61016;DHT22;46902;52.920;6.536;2023-03-21T15:16:01;12.40;99.90
61016;DHT22;46902;52.920;6.536;2023-03-21T15:18:30;12.40;99.90
61016;DHT22;46902;52.920;6.536;2023-03-21T15:21:37;12.30;99.90
61016;DHT22;46902;52.920;6.536;2023-03-21T15:26:32;12.20;99.90
61016;DHT22;46902;52.920;6.536;2023-03-21T15:28:59;12.20;99.90
61016;DHT22;46902;52.920;6.536;2023-03-21T15:31:29;12.20;99.90
61016;DHT22;46902;52.920;6.536;2023-03-21T15:33:55;12.20;99.90
61016;DHT22;46902;52.920;6.536;2023-03-21T15:36:26;12.20;99.90
61016;DHT22;46902;52.920;6.536;2023-03-21T15:38:53;12.20;99.90
61016;DHT22;46902;52.920;6.536;2023-03-21T15:43:59;12.20;99.90
61016;DHT22;46902;52.920;6.536;2023-03-21T15:49:28;12.20;99.90
61016;DHT22;46902;52.920;6.536;2023-03-21T15:54:34;12.20;99.90
61016;DHT22;46902;52.920;6.536;2023-03-21T15:57:04;12.20;99.90
61016;DHT22;46902;52.920;6.536;2023-03-21T15:59:40;12.10;99.90
61016;DHT22;46902;52.920;6.536;2023-03-21T16:02:19;12.10;99.90
61016;DHT22;46902;52.920;6.536;2023-03-21T16:04:59;12.20;99.90
61016;DHT22;46902;52.920;6.536;2023-03-21T16:07:26;12.20;99.90
61016;DHT22;46902;52.920;6.536;2023-03-21T16:09:58;12.10;99.90
61016;DHT22;46902;52.920;6.536;2023-03-21T16:12:24;12.10;99.90
61016;DHT22;46902;52.920;6.536;2023-03-21T16:14:50;12.10;99.90
61016;DHT22;46902;52.920;6.536;2023-03-21T16:17:35;12.10;99.90
61016;DHT22;46902;52.920;6.536;2023-03-21T16:20:15;12.10;99.90
61016;DHT22;46902;52.920;6.536;2023-03-21T16:22:42;12.10;99.90
61016;DHT22;46902;52.920;6.536;2023-03-21T16:25:07;12.10;99.90
61016;DHT22;46902;52.920;6.536;2023-03-21T16:27:33;12.10;99.90
61016;DHT22;46902;52.920;6.536;2023-03-21T16:29:59;12.10;99.90
61016;DHT22;46902;52.920;6.536;2023-03-21T16:32:25;12.10;99.90
61016;DHT22;46902;52.920;6.536;2023-03-21T16:34:51;12.10;99.90
61016;DHT22;46902;52.920;6.536;2023-03-21T16:37:20;12.10;99.90
61016;DHT22;46902;52.920;6.536;2023-03-21T16:39:46;12.10;99.90
61016;DHT22;46902;52.920;6.536;2023-03-21T16:42:12;12.10;99.90
61016;DHT22;46902;52.920;6.536;2023-03-21T16:44:38;12.00;99.90
61016;DHT22;46902;52.920;6.536;2023-03-21T16:47:19;12.00;99.90
61016;DHT22;46902;52.920;6.536;2023-03-21T16:49:45;11.80;99.90
61016;DHT22;46902;52.920;6.536;2023-03-21T16:52:12;11.70;99.90
61016;DHT22;46902;52.920;6.536;2023-03-21T16:54:41;11.50;99.90
61016;DHT22;46902;52.920;6.536;2023-03-21T16:57:18;11.40;99.90
61016;DHT22;46902;52.920;6.536;2023-03-21T16:59:45;11.20;99.90
61016;DHT22;46902;52.920;6.536;2023-03-21T17:02:12;11.20;99.90
61016;DHT22;46902;52.920;6.536;2023-03-21T17:04:38;11.10;99.90
61016;DHT22;46902;52.920;6.536;2023-03-21T17:07:08;11.10;99.90
61016;DHT22;46902;52.920;6.536;2023-03-21T17:09:34;11.10;99.90
61016;DHT22;46902;52.920;6.536;2023-03-21T17:11:59;11.10;99.90
61016;DHT22;46902;52.920;6.536;2023-03-21T17:14:25;11.00;99.90
61016;DHT22;46902;52.920;6.536;2023-03-21T17:16:51;11.00;99.90
61016;DHT22;46902;52.920;6.536;2023-03-21T17:19:20;11.00;99.90
61016;DHT22;46902;52.920;6.536;2023-03-21T17:21:48;11.00;99.90
61016;DHT22;46902;52.920;6.536;2023-03-21T17:24:14;10.90;99.90
61016;DHT22;46902;52.920;6.536;2023-03-21T17:26:40;11.00;99.90
61016;DHT22;46902;52.920;6.536;2023-03-21T17:29:06;11.00;99.90
61016;DHT22;46902;52.920;6.536;2023-03-21T17:31:34;11.00;99.90
61016;DHT22;46902;52.920;6.536;2023-03-21T17:34:00;11.00;99.90
61016;DHT22;46902;52.920;6.536;2023-03-21T17:36:32;11.10;99.90
61016;DHT22;46902;52.920;6.536;2023-03-21T17:38:58;11.10;99.90
61016;DHT22;46902;52.920;6.536;2023-03-21T17:41:24;11.10;99.90
61016;DHT22;46902;52.920;6.536;2023-03-21T17:43:50;11.10;99.90
61016;DHT22;46902;52.920;6.536;2023-03-21T17:46:18;11.10;99.90